createdAt,value
2018-03-02T00:00:51.618Z,-9.5
2018-03-02T00:01:54.597Z,-9.5
2018-03-02T00:02:57.006Z,-9.5
2018-03-02T00:03:59.413Z,-9.5
2018-03-02T00:05:01.833Z,-9.6
2018-03-02T00:06:04.242Z,-9.5
2018-03-02T00:07:06.641Z,-9.6
2018-03-02T00:08:09.635Z,-9.6
2018-03-02T00:09:12.348Z,-9.6
2018-03-02T00:10:14.759Z,-9.6
2018-03-02T00:11:17.178Z,-9.6
2018-03-02T00:12:19.879Z,-9.6
2018-03-02T00:13:22.278Z,-9.6
2018-03-02T00:14:25.056Z,-9.6
2018-03-02T00:15:27.408Z,-9.6
2018-03-02T00:16:29.820Z,-9.6
2018-03-02T00:17:32.242Z,-9.7
2018-03-02T00:18:34.633Z,-9.7
2018-03-02T00:19:37.621Z,-9.7
2018-03-02T00:20:40.022Z,-9.7
2018-03-02T00:21:43.005Z,-9.7
2018-03-02T00:22:45.413Z,-9.7
2018-03-02T00:23:48.089Z,-9.7
2018-03-02T00:24:50.500Z,-9.8
2018-03-02T00:25:53.185Z,-9.8
2018-03-02T00:26:55.600Z,-9.8
2018-03-02T00:27:58.010Z,-9.8
2018-03-02T00:29:00.727Z,-9.7
2018-03-02T00:30:03.131Z,-9.8
2018-03-02T00:31:05.543Z,-9.8
2018-03-02T00:32:08.239Z,-9.8
2018-03-02T00:33:10.648Z,-9.9
2018-03-02T00:34:13.065Z,-9.9
2018-03-02T00:35:15.469Z,-9.8
2018-03-02T00:36:17.883Z,-9.9
2018-03-02T00:37:20.596Z,-9.9
2018-03-02T00:38:22.995Z,-9.9
2018-03-02T00:39:25.413Z,-9.9
2018-03-02T00:40:28.399Z,-9.9
2018-03-02T00:41:30.816Z,-9.9
2018-03-02T00:42:33.501Z,-9.9
2018-03-02T00:43:36.196Z,-9.9
2018-03-02T00:44:38.605Z,-9.9
2018-03-02T00:45:41.023Z,-9.9
2018-03-02T00:46:43.428Z,-10
2018-03-02T00:47:45.832Z,-10
2018-03-02T00:48:48.242Z,-9.9
2018-03-02T00:49:50.644Z,-10
2018-03-02T00:50:53.056Z,-10
2018-03-02T00:51:55.749Z,-10
2018-03-02T00:52:58.158Z,-10
2018-03-02T00:54:00.574Z,-10.1
2018-03-02T00:55:03.271Z,-10.1
2018-03-02T00:56:05.685Z,-10
2018-03-02T00:57:08.418Z,-10
2018-03-02T00:58:10.824Z,-10.1
2018-03-02T00:59:13.246Z,-10.1
2018-03-02T01:00:15.646Z,-10.1
2018-03-02T01:01:18.050Z,-10.1
2018-03-02T01:02:20.749Z,-10.2
2018-03-02T01:03:23.158Z,-10.1
2018-03-02T01:04:25.867Z,-10.1
2018-03-02T01:05:28.281Z,-10.2
2018-03-02T01:06:30.692Z,-10.3
2018-03-02T01:07:33.093Z,-10.2
2018-03-02T01:08:35.800Z,-10.2
2018-03-02T01:09:38.201Z,-10.2
2018-03-02T01:10:40.894Z,-10.1
2018-03-02T01:11:43.350Z,-10.1
2018-03-02T01:12:45.708Z,-10.2
2018-03-02T01:13:48.119Z,-10.2
2018-03-02T01:14:50.526Z,-10.3
2018-03-02T01:15:53.218Z,-10.3
2018-03-02T01:16:55.618Z,-10.4
2018-03-02T01:17:58.022Z,-10.4
2018-03-02T01:19:00.425Z,-10.3
2018-03-02T01:20:02.825Z,-10.3
2018-03-02T01:21:05.235Z,-10.2
2018-03-02T01:22:07.939Z,-10.3
2018-03-02T01:23:10.329Z,-10.4
2018-03-02T01:24:12.743Z,-10.4
2018-03-02T01:25:15.151Z,-10.4
2018-03-02T01:26:17.569Z,-10.4
2018-03-02T01:27:19.971Z,-10.5
2018-03-02T01:28:22.657Z,-10.5
2018-03-02T01:29:25.055Z,-10.5
2018-03-02T01:30:27.466Z,-10.4
2018-03-02T01:31:30.153Z,-10.4
2018-03-02T01:32:32.838Z,-10.4
2018-03-02T01:33:35.238Z,-10.4
2018-03-02T01:34:37.642Z,-10.5
2018-03-02T01:35:40.045Z,-10.5
2018-03-02T01:36:42.447Z,-10.5
2018-03-02T01:37:44.861Z,-10.5
2018-03-02T01:38:47.263Z,-10.5
2018-03-02T01:39:49.958Z,-10.5
2018-03-02T01:40:52.368Z,-10.6
2018-03-02T01:41:54.772Z,-10.6
2018-03-02T01:42:57.754Z,-10.6
2018-03-02T01:44:00.157Z,-10.6
2018-03-02T01:45:02.575Z,-10.6
2018-03-02T01:46:05.258Z,-10.6
2018-03-02T01:47:07.939Z,-10.6
2018-03-02T01:48:10.346Z,-10.6
2018-03-02T01:49:12.733Z,-10.6
2018-03-02T01:50:15.147Z,-10.6
2018-03-02T01:51:17.550Z,-10.7
2018-03-02T01:52:20.240Z,-10.7
2018-03-02T01:53:22.936Z,-10.6
2018-03-02T01:54:25.341Z,-10.7
2018-03-02T01:55:27.732Z,-10.7
2018-03-02T01:56:30.152Z,-10.7
2018-03-02T01:57:32.545Z,-10.7
2018-03-02T01:58:34.948Z,-10.6
2018-03-02T01:59:37.345Z,-10.7
2018-03-02T02:00:39.751Z,-10.7
2018-03-02T02:01:42.156Z,-10.7
2018-03-02T02:02:44.570Z,-10.8
2018-03-02T02:03:46.960Z,-10.8
2018-03-02T02:04:49.653Z,-10.8
2018-03-02T02:05:52.347Z,-10.8
2018-03-02T02:06:54.751Z,-10.8
2018-03-02T02:07:57.155Z,-10.8
2018-03-02T02:08:59.558Z,-10.9
2018-03-02T02:10:02.241Z,-10.8
2018-03-02T02:11:04.656Z,-10.8
2018-03-02T02:12:07.352Z,-10.8
2018-03-02T02:13:09.751Z,-10.8
2018-03-02T02:14:12.156Z,-10.8
2018-03-02T02:15:15.153Z,-10.9
2018-03-02T02:16:17.549Z,-10.9
2018-03-02T02:17:19.950Z,-10.9
2018-03-02T02:18:22.355Z,-10.9
2018-03-02T02:19:25.067Z,-10.9
2018-03-02T02:20:27.439Z,-10.9
2018-03-02T02:21:29.845Z,-10.9
2018-03-02T02:22:32.540Z,-10.9
2018-03-02T02:23:34.942Z,-10.9
2018-03-02T02:24:37.337Z,-11
2018-03-02T02:25:39.745Z,-11
2018-03-02T02:26:42.142Z,-10.9
2018-03-02T02:27:44.552Z,-10.9
2018-03-02T02:28:46.948Z,-10.9
2018-03-02T02:29:49.356Z,-10.9
2018-03-02T02:30:52.329Z,-11
2018-03-02T02:31:54.732Z,-11.1
2018-03-02T02:32:57.716Z,-11.1
2018-03-02T02:34:00.434Z,-11
2018-03-02T02:35:02.829Z,-11
2018-03-02T02:36:05.827Z,-11.1
2018-03-02T02:37:08.230Z,-11
2018-03-02T02:38:10.633Z,-11
2018-03-02T02:39:13.039Z,-11
2018-03-02T02:40:15.445Z,-11.1
2018-03-02T02:41:17.843Z,-11
2018-03-02T02:42:20.534Z,-11.1
2018-03-02T02:43:22.931Z,-11.1
2018-03-02T02:44:25.333Z,-11
2018-03-02T02:45:27.732Z,-11
2018-03-02T02:46:30.141Z,-11.1
2018-03-02T02:47:32.848Z,-11.1
2018-03-02T02:48:35.246Z,-11.1
2018-03-02T02:49:37.661Z,-11.1
2018-03-02T02:50:40.060Z,-11.2
2018-03-02T02:51:42.456Z,-11.1
2018-03-02T02:52:45.744Z,-11.1
2018-03-02T02:53:48.486Z,-11.1
2018-03-02T02:54:50.880Z,-11.1
2018-03-02T02:55:53.287Z,-11.1
2018-03-02T02:56:55.691Z,-11.2
2018-03-02T02:57:58.092Z,-11.1
2018-03-02T02:59:00.772Z,-11.1
2018-03-02T03:00:03.182Z,-11.2
2018-03-02T03:01:05.571Z,-11.2
2018-03-02T03:02:08.574Z,-11.2
2018-03-02T03:03:10.970Z,-11.1
2018-03-02T03:04:13.377Z,-11.1
2018-03-02T03:05:16.068Z,-11.1
2018-03-02T03:06:18.761Z,-11.2
2018-03-02T03:07:21.170Z,-11.2
2018-03-02T03:08:23.868Z,-11.2
2018-03-02T03:09:26.542Z,-11.2
2018-03-02T03:10:28.947Z,-11.2
2018-03-02T03:11:31.638Z,-11.2
2018-03-02T03:12:34.318Z,-11.3
2018-03-02T03:13:36.723Z,-11.3
2018-03-02T03:14:39.126Z,-11.3
2018-03-02T03:15:41.810Z,-11.3
2018-03-02T03:16:44.220Z,-11.3
2018-03-02T03:17:46.616Z,-11.3
2018-03-02T03:18:49.021Z,-11.3
2018-03-02T03:19:51.421Z,-11.4
2018-03-02T03:20:54.111Z,-11.4
2018-03-02T03:21:56.514Z,-11.4
2018-03-02T03:22:58.917Z,-11.3
2018-03-02T03:24:01.319Z,-11.3
2018-03-02T03:25:03.718Z,-11.3
2018-03-02T03:26:06.119Z,-11.4
2018-03-02T03:27:09.102Z,-11.4
2018-03-02T03:28:11.796Z,-11.4
2018-03-02T03:29:14.483Z,-11.4
2018-03-02T03:30:16.886Z,-11.3
2018-03-02T03:31:19.292Z,-11.3
2018-03-02T03:32:21.695Z,-11.3
2018-03-02T03:33:24.105Z,-11.3
2018-03-02T03:34:26.489Z,-11.4
2018-03-02T03:35:28.895Z,-11.3
2018-03-02T03:36:31.293Z,-11.4
2018-03-02T03:37:33.981Z,-11.3
2018-03-02T03:38:36.379Z,-11.3
2018-03-02T03:39:38.777Z,-11.3
2018-03-02T03:40:41.173Z,-11.3
2018-03-02T03:41:43.584Z,-11.4
2018-03-02T03:42:45.982Z,-11.4
2018-03-02T03:43:48.379Z,-11.4
2018-03-02T03:44:50.787Z,-11.4
2018-03-02T03:45:53.194Z,-11.4
2018-03-02T03:46:55.592Z,-11.4
2018-03-02T03:47:58.283Z,-11.5
2018-03-02T03:49:00.683Z,-11.5
2018-03-02T03:50:03.087Z,-11.5
2018-03-02T03:51:05.766Z,-11.5
2018-03-02T03:52:08.170Z,-11.5
2018-03-02T03:53:10.575Z,-11.5
2018-03-02T03:54:12.976Z,-11.4
2018-03-02T03:55:15.378Z,-11.4
2018-03-02T03:56:17.782Z,-11.4
2018-03-02T03:57:20.176Z,-11.4
2018-03-02T03:58:22.592Z,-11.5
2018-03-02T03:59:24.988Z,-11.5
2018-03-02T04:00:27.378Z,-11.5
2018-03-02T04:01:30.074Z,-11.4
2018-03-02T04:02:32.475Z,-11.4
2018-03-02T04:03:34.877Z,-11.4
2018-03-02T04:04:37.562Z,-11.5
2018-03-02T04:05:39.967Z,-11.5
2018-03-02T04:06:42.365Z,-11.5
2018-03-02T04:07:44.780Z,-11.5
2018-03-02T04:08:47.167Z,-11.5
2018-03-02T04:09:49.572Z,-11.4
2018-03-02T04:10:52.265Z,-11.5
2018-03-02T04:11:54.660Z,-11.4
2018-03-02T04:12:57.062Z,-11.5
2018-03-02T04:13:59.458Z,-11.5
2018-03-02T04:15:01.853Z,-11.5
2018-03-02T04:16:04.252Z,-11.6
2018-03-02T04:17:06.650Z,-11.6
2018-03-02T04:18:09.056Z,-11.6
2018-03-02T04:19:11.444Z,-11.5
2018-03-02T04:20:13.847Z,-11.6
2018-03-02T04:21:16.248Z,-11.5
2018-03-02T04:22:18.644Z,-11.5
2018-03-02T04:23:21.085Z,-11.5
2018-03-02T04:24:23.450Z,-11.5
2018-03-02T04:25:25.848Z,-11.5
2018-03-02T04:26:28.256Z,-11.5
2018-03-02T04:27:30.654Z,-11.5
2018-03-02T04:28:33.060Z,-11.5
2018-03-02T04:29:35.744Z,-11.5
2018-03-02T04:30:38.140Z,-11.6
2018-03-02T04:31:40.822Z,-11.6
2018-03-02T04:32:43.227Z,-11.6
2018-03-02T04:33:45.620Z,-11.6
2018-03-02T04:34:48.306Z,-11.6
2018-03-02T04:35:50.710Z,-11.6
2018-03-02T04:36:53.109Z,-11.6
2018-03-02T04:37:55.510Z,-11.6
2018-03-02T04:38:57.910Z,-11.6
2018-03-02T04:40:00.312Z,-11.6
2018-03-02T04:41:02.718Z,-11.6
2018-03-02T04:42:05.114Z,-11.6
2018-03-02T04:43:07.505Z,-11.7
2018-03-02T04:44:09.908Z,-11.6
2018-03-02T04:45:12.310Z,-11.7
2018-03-02T04:46:14.706Z,-11.7
2018-03-02T04:47:17.101Z,-11.7
2018-03-02T04:48:19.512Z,-11.8
2018-03-02T04:49:22.199Z,-11.7
2018-03-02T04:50:24.602Z,-11.7
2018-03-02T04:51:27.008Z,-11.6
2018-03-02T04:52:29.699Z,-11.6
2018-03-02T04:53:32.391Z,-11.7
2018-03-02T04:54:34.796Z,-11.6
2018-03-02T04:55:37.185Z,-11.7
2018-03-02T04:56:39.586Z,-11.7
2018-03-02T04:57:42.290Z,-11.7
2018-03-02T04:58:44.685Z,-11.7
2018-03-02T04:59:47.088Z,-11.7
2018-03-02T05:00:49.780Z,-11.7
2018-03-02T05:01:52.173Z,-11.8
2018-03-02T05:02:54.568Z,-11.7
2018-03-02T05:03:56.978Z,-11.7
2018-03-02T05:04:59.385Z,-11.8
2018-03-02T05:06:01.792Z,-11.8
2018-03-02T05:07:04.198Z,-11.9
2018-03-02T05:08:06.596Z,-11.8
2018-03-02T05:09:09.005Z,-11.8
2018-03-02T05:10:11.401Z,-11.8
2018-03-02T05:11:13.791Z,-11.8
2018-03-02T05:12:16.187Z,-11.9
2018-03-02T05:13:18.874Z,-11.8
2018-03-02T05:14:21.281Z,-11.8
2018-03-02T05:15:23.682Z,-11.8
2018-03-02T05:16:26.371Z,-11.8
2018-03-02T05:17:29.066Z,-11.7
2018-03-02T05:18:31.745Z,-11.8
2018-03-02T05:19:34.155Z,-11.8
2018-03-02T05:20:36.558Z,-11.8
2018-03-02T05:21:39.320Z,-11.7
2018-03-02T05:22:41.674Z,-11.7
2018-03-02T05:23:44.346Z,-11.7
2018-03-02T05:24:46.753Z,-11.7
2018-03-02T05:25:49.443Z,-11.8
2018-03-02T05:26:52.161Z,-11.7
2018-03-02T05:27:54.562Z,-11.8
2018-03-02T05:28:56.978Z,-11.8
2018-03-02T05:29:59.370Z,-11.8
2018-03-02T05:31:02.072Z,-11.8
2018-03-02T05:32:05.060Z,-11.8
2018-03-02T05:33:08.014Z,-11.7
2018-03-02T05:34:10.422Z,-11.7
2018-03-02T05:35:12.823Z,-11.8
2018-03-02T05:36:15.230Z,-11.8
2018-03-02T05:37:17.625Z,-11.7
2018-03-02T05:38:20.316Z,-11.7
2018-03-02T05:39:23.006Z,-11.8
2018-03-02T05:40:25.422Z,-11.8
2018-03-02T05:41:27.816Z,-11.7
2018-03-02T05:42:30.209Z,-11.7
2018-03-02T05:43:32.622Z,-11.7
2018-03-02T05:44:35.023Z,-11.7
2018-03-02T05:45:37.722Z,-11.8
2018-03-02T05:46:40.141Z,-11.8
2018-03-02T05:47:42.518Z,-11.8
2018-03-02T05:48:45.212Z,-11.8
2018-03-02T05:49:47.610Z,-11.8
2018-03-02T05:50:50.016Z,-11.8
2018-03-02T05:51:52.419Z,-11.8
2018-03-02T05:52:54.812Z,-11.7
2018-03-02T05:53:57.204Z,-11.8
2018-03-02T05:54:59.617Z,-11.8
2018-03-02T05:56:02.016Z,-11.7
2018-03-02T05:57:04.689Z,-11.8
2018-03-02T05:58:07.100Z,-11.7
2018-03-02T05:59:09.810Z,-11.8
2018-03-02T06:00:12.248Z,-11.8
2018-03-02T06:01:14.940Z,-11.7
2018-03-02T06:02:17.335Z,-11.8
2018-03-02T06:03:19.737Z,-11.7
2018-03-02T06:04:22.142Z,-11.7
2018-03-02T06:05:24.827Z,-11.8
2018-03-02T06:06:27.217Z,-11.8
2018-03-02T06:07:29.929Z,-11.8
2018-03-02T06:08:32.324Z,-11.8
2018-03-02T06:09:35.020Z,-11.7
2018-03-02T06:10:37.706Z,-11.8
2018-03-02T06:11:40.108Z,-11.9
2018-03-02T06:12:42.517Z,-11.9
2018-03-02T06:13:44.930Z,-11.8
2018-03-02T06:14:47.328Z,-11.9
2018-03-02T06:15:49.728Z,-11.9
2018-03-02T06:16:52.125Z,-11.9
2018-03-02T06:17:54.531Z,-11.9
2018-03-02T06:18:56.924Z,-11.8
2018-03-02T06:19:59.327Z,-11.9
2018-03-02T06:21:02.035Z,-11.9
2018-03-02T06:22:04.424Z,-11.9
2018-03-02T06:23:06.828Z,-11.8
2018-03-02T06:24:09.235Z,-11.8
2018-03-02T06:25:11.917Z,-11.8
2018-03-02T06:26:14.615Z,-11.8
2018-03-02T06:27:17.014Z,-11.8
2018-03-02T06:28:19.405Z,-11.9
2018-03-02T06:29:22.408Z,-11.8
2018-03-02T06:30:24.802Z,-11.8
2018-03-02T06:31:27.499Z,-11.9
2018-03-02T06:32:29.899Z,-11.9
2018-03-02T06:33:32.291Z,-11.8
2018-03-02T06:34:34.687Z,-11.8
2018-03-02T06:35:37.086Z,-11.7
2018-03-02T06:36:39.481Z,-11.7
2018-03-02T06:37:41.893Z,-11.7
2018-03-02T06:38:44.568Z,-11.7
2018-03-02T06:39:46.967Z,-11.7
2018-03-02T06:40:49.368Z,-11.8
2018-03-02T06:41:51.776Z,-11.7
2018-03-02T06:42:54.183Z,-11.7
2018-03-02T06:43:56.573Z,-11.6
2018-03-02T06:44:58.992Z,-11.7
2018-03-02T06:46:01.673Z,-11.6
2018-03-02T06:47:04.059Z,-11.6
2018-03-02T06:48:06.747Z,-11.7
2018-03-02T06:49:09.136Z,-11.7
2018-03-02T06:50:11.541Z,-11.7
2018-03-02T06:51:13.944Z,-11.6
2018-03-02T06:52:16.344Z,-11.6
2018-03-02T06:53:18.752Z,-11.6
2018-03-02T06:54:21.164Z,-11.5
2018-03-02T06:55:23.558Z,-11.4
2018-03-02T06:56:25.957Z,-11.5
2018-03-02T06:57:28.352Z,-11.5
2018-03-02T06:58:30.756Z,-11.4
2018-03-02T06:59:33.151Z,-11.5
2018-03-02T07:00:35.553Z,-11.5
2018-03-02T07:01:37.950Z,-11.5
2018-03-02T07:02:40.640Z,-11.4
2018-03-02T07:03:43.035Z,-11.4
2018-03-02T07:04:45.734Z,-11.4
2018-03-02T07:05:48.115Z,-11.3
2018-03-02T07:06:50.520Z,-11.3
2018-03-02T07:07:52.920Z,-11.3
2018-03-02T07:08:55.311Z,-11.4
2018-03-02T07:09:57.720Z,-11.3
2018-03-02T07:11:00.115Z,-11.3
2018-03-02T07:12:02.507Z,-11.2
2018-03-02T07:13:04.924Z,-11.1
2018-03-02T07:14:07.920Z,-11.1
2018-03-02T07:15:10.404Z,-11.2
2018-03-02T07:16:13.803Z,-11.2
2018-03-02T07:17:17.342Z,-11.2
2018-03-02T07:18:19.690Z,-11.1
2018-03-02T07:19:22.107Z,-11.1
2018-03-02T07:20:24.514Z,-11
2018-03-02T07:21:26.940Z,-10.9
2018-03-02T07:22:29.324Z,-11
2018-03-02T07:23:31.732Z,-10.9
2018-03-02T07:24:34.127Z,-10.9
2018-03-02T07:25:36.529Z,-10.9
2018-03-02T07:26:38.922Z,-10.9
2018-03-02T07:27:41.614Z,-10.8
2018-03-02T07:28:44.016Z,-10.8
2018-03-02T07:29:46.410Z,-10.8
2018-03-02T07:30:48.812Z,-10.7
2018-03-02T07:31:51.214Z,-10.7
2018-03-02T07:32:53.616Z,-10.7
2018-03-02T07:33:56.022Z,-10.8
2018-03-02T07:34:58.425Z,-10.7
2018-03-02T07:36:00.833Z,-10.6
2018-03-02T07:37:03.258Z,-10.6
2018-03-02T07:38:05.946Z,-10.4
2018-03-02T07:39:08.622Z,-10.4
2018-03-02T07:40:11.023Z,-10.2
2018-03-02T07:41:13.430Z,-10.1
2018-03-02T07:42:16.117Z,-10
2018-03-02T07:43:18.516Z,-10
2018-03-02T07:44:21.252Z,-10
2018-03-02T07:45:23.954Z,-9.9
2018-03-02T07:46:26.357Z,-10
2018-03-02T07:47:28.757Z,-9.9
2018-03-02T07:48:31.162Z,-10
2018-03-02T07:49:33.562Z,-10
2018-03-02T07:50:35.967Z,-9.7
2018-03-02T07:51:38.368Z,-9.4
2018-03-02T07:52:40.769Z,-9.6
2018-03-02T07:53:43.177Z,-9.5
2018-03-02T07:54:45.581Z,-9.3
2018-03-02T07:55:47.983Z,-9.1
2018-03-02T07:56:50.386Z,-9.3
2018-03-02T07:57:52.793Z,-9.4
2018-03-02T07:58:55.489Z,-9.3
2018-03-02T07:59:57.896Z,-9
2018-03-02T08:01:00.578Z,-9.2
2018-03-02T08:02:02.984Z,-9.1
2018-03-02T08:03:05.408Z,-9.1
2018-03-02T08:04:07.809Z,-9
2018-03-02T08:05:10.209Z,-9.2
2018-03-02T08:06:12.608Z,-9.2
2018-03-02T08:07:15.015Z,-9.1
2018-03-02T08:08:17.425Z,-8.9
2018-03-02T08:09:19.837Z,-8.8
2018-03-02T08:10:22.233Z,-9
2018-03-02T08:11:24.642Z,-8.8
2018-03-02T08:12:27.061Z,-8.7
2018-03-02T08:13:29.466Z,-8.7
2018-03-02T08:14:31.876Z,-8.7
2018-03-02T08:15:34.281Z,-8.6
2018-03-02T08:16:36.694Z,-8.5
2018-03-02T08:17:39.092Z,-8.4
2018-03-02T08:18:41.504Z,-7.9
2018-03-02T08:19:43.921Z,-8
2018-03-02T08:20:46.334Z,-7.9
2018-03-02T08:21:48.742Z,-8.1
2018-03-02T08:22:51.440Z,-8
2018-03-02T08:23:53.846Z,-8.1
2018-03-02T08:24:56.273Z,-7.9
2018-03-02T08:25:58.729Z,-8.1
2018-03-02T08:27:01.078Z,-7.8
2018-03-02T08:28:03.491Z,-7.8
2018-03-02T08:29:05.893Z,-7.8
2018-03-02T08:30:08.304Z,-7.8
2018-03-02T08:31:11.298Z,-7.8
2018-03-02T08:32:13.717Z,-7.7
2018-03-02T08:33:16.122Z,-7.5
2018-03-02T08:34:18.543Z,-7.3
2018-03-02T08:35:20.955Z,-7.4
2018-03-02T08:36:23.373Z,-7.2
2018-03-02T08:37:25.782Z,-7.1
2018-03-02T08:38:28.217Z,-6.9
2018-03-02T08:39:30.917Z,-6.8
2018-03-02T08:40:33.451Z,-6.8
2018-03-02T08:41:37.566Z,-6.5
2018-03-02T08:42:43.284Z,-6.6
2018-03-02T08:43:47.167Z,-7.1
2018-03-02T08:44:49.575Z,-7.1
2018-03-02T08:45:52.271Z,-7.1
2018-03-02T08:46:54.690Z,-7.1
2018-03-02T08:47:57.107Z,-7
2018-03-02T08:48:59.526Z,-6.9
2018-03-02T08:50:02.003Z,-6.4
2018-03-02T08:51:04.669Z,-6.8
2018-03-02T08:52:07.347Z,-6.8
2018-03-02T08:53:10.339Z,-6.9
2018-03-02T08:54:12.752Z,-6.9
2018-03-02T08:55:15.168Z,-6.7
2018-03-02T08:56:17.577Z,-6.3
2018-03-02T08:57:19.986Z,-6.3
2018-03-02T08:58:22.402Z,-7
2018-03-02T08:59:24.816Z,-7
2018-03-02T09:00:27.221Z,-7.1
2018-03-02T09:01:29.923Z,-7
2018-03-02T09:02:32.335Z,-7
2018-03-02T09:03:34.758Z,-6.8
2018-03-02T09:04:37.175Z,-7
2018-03-02T09:05:39.588Z,-7.1
2018-03-02T09:06:42.004Z,-6.9
2018-03-02T09:07:44.704Z,-6.8
2018-03-02T09:08:47.106Z,-6.7
2018-03-02T09:09:49.525Z,-6.4
2018-03-02T09:10:52.247Z,-6.5
2018-03-02T09:11:54.656Z,-6.6
2018-03-02T09:12:57.065Z,-6.4
2018-03-02T09:13:59.474Z,-6.8
2018-03-02T09:15:01.901Z,-6.5
2018-03-02T09:16:04.598Z,-6.8
2018-03-02T09:17:07.291Z,-6.5
2018-03-02T09:18:09.710Z,-6.5
2018-03-02T09:19:12.447Z,-5.9
2018-03-02T09:20:14.862Z,-6.2
2018-03-02T09:21:17.281Z,-6.3
2018-03-02T09:22:19.688Z,-6.3
2018-03-02T09:23:22.106Z,-6.1
2018-03-02T09:24:24.539Z,-5.9
2018-03-02T09:25:26.952Z,-5.6
2018-03-02T09:26:29.365Z,-6.1
2018-03-02T09:27:31.785Z,-6
2018-03-02T09:28:34.196Z,-6.1
2018-03-02T09:29:36.608Z,-6
2018-03-02T09:30:39.030Z,-6
2018-03-02T09:31:41.447Z,-6.1
2018-03-02T09:32:43.864Z,-5.9
2018-03-02T09:33:46.285Z,-6
2018-03-02T09:34:48.992Z,-5.9
2018-03-02T09:35:52.021Z,-5.9
2018-03-02T09:36:54.724Z,-5.7
2018-03-02T09:37:57.425Z,-5.9
2018-03-02T09:38:59.844Z,-5.9
2018-03-02T09:40:02.262Z,-5.8
2018-03-02T09:41:04.684Z,-5.1
2018-03-02T09:42:07.098Z,-5.3
2018-03-02T09:43:09.508Z,-5.5
2018-03-02T09:44:11.933Z,-5.5
2018-03-02T09:45:14.350Z,-5
2018-03-02T09:46:16.766Z,-4.7
2018-03-02T09:47:19.189Z,-5
2018-03-02T09:48:21.906Z,-4.9
2018-03-02T09:49:24.303Z,-5.5
2018-03-02T09:50:26.728Z,-5.3
2018-03-02T09:51:29.451Z,-5.5
2018-03-02T09:52:31.861Z,-5.5
2018-03-02T09:53:34.278Z,-5.4
2018-03-02T09:54:36.698Z,-5.2
2018-03-02T09:55:39.114Z,-5.2
2018-03-02T09:56:42.151Z,-5.1
2018-03-02T09:57:44.560Z,-5
2018-03-02T09:58:46.992Z,-4.8
2018-03-02T09:59:49.406Z,-4.4
2018-03-02T10:00:51.827Z,-4.9
2018-03-02T10:01:54.246Z,-4.7
2018-03-02T10:02:56.661Z,-4.8
2018-03-02T10:03:59.078Z,-4.8
2018-03-02T10:05:01.787Z,-4.4
2018-03-02T10:06:04.202Z,-4.4
2018-03-02T10:07:06.616Z,-4.6
2018-03-02T10:08:09.028Z,-4.4
2018-03-02T10:09:11.456Z,-4.1
2018-03-02T10:10:13.875Z,-4.4
2018-03-02T10:11:16.292Z,-4.5
2018-03-02T10:12:18.709Z,-4.3
2018-03-02T10:13:21.142Z,-3.7
2018-03-02T10:14:23.544Z,-3.4
2018-03-02T10:15:25.976Z,-3.2
2018-03-02T10:16:28.693Z,-2.4
2018-03-02T10:17:31.112Z,-2.4
2018-03-02T10:18:33.528Z,-3.1
2018-03-02T10:19:36.239Z,-3.2
2018-03-02T10:20:38.943Z,-2.7
2018-03-02T10:21:41.381Z,-3.1
2018-03-02T10:22:43.806Z,-3.2
2018-03-02T10:23:46.218Z,-2.9
2018-03-02T10:24:48.641Z,-2.9
2018-03-02T10:25:51.064Z,-2.7
2018-03-02T10:26:53.483Z,-2.9
2018-03-02T10:27:56.197Z,-3.7
2018-03-02T10:28:58.621Z,-3
2018-03-02T10:30:01.049Z,-3.5
2018-03-02T10:31:03.471Z,-3.4
2018-03-02T10:32:06.174Z,-3.1
2018-03-02T10:33:08.584Z,-3.3
2018-03-02T10:34:11.007Z,-3.6
2018-03-02T10:35:13.429Z,-3.1
2018-03-02T10:36:15.843Z,-2.9
2018-03-02T10:37:18.546Z,-3.3
2018-03-02T10:38:20.968Z,-2.4
2018-03-02T10:39:23.390Z,-2.5
2018-03-02T10:40:26.118Z,-1.9
2018-03-02T10:41:28.527Z,-2.5
2018-03-02T10:42:31.237Z,-2.4
2018-03-02T10:43:33.651Z,-2.9
2018-03-02T10:44:36.362Z,-3
2018-03-02T10:45:38.773Z,-3
2018-03-02T10:46:41.507Z,-3.2
2018-03-02T10:47:43.934Z,-3.4
2018-03-02T10:48:46.353Z,-3.6
2018-03-02T10:49:48.776Z,-3.8
2018-03-02T10:50:51.204Z,-3.5
2018-03-02T10:51:53.622Z,-3.4
2018-03-02T10:52:56.056Z,-3.1
2018-03-02T10:53:58.478Z,-3
2018-03-02T10:55:00.905Z,-3.4
2018-03-02T10:56:03.906Z,-3.8
2018-03-02T10:57:06.319Z,-3.3
2018-03-02T10:58:08.738Z,-2.9
2018-03-02T10:59:11.534Z,-2.1
2018-03-02T11:00:13.966Z,-3
2018-03-02T11:01:16.381Z,-2.2
2018-03-02T11:02:19.090Z,-3
2018-03-02T11:03:21.792Z,-3.3
2018-03-02T11:04:24.527Z,-3.4
2018-03-02T11:05:26.944Z,-4
2018-03-02T11:06:29.366Z,-3.5
2018-03-02T11:07:32.689Z,-3.6
2018-03-02T11:08:35.116Z,-3.8
2018-03-02T11:09:37.542Z,-4.2
2018-03-02T11:10:39.957Z,-3.4
2018-03-02T11:11:42.680Z,-3.4
2018-03-02T11:12:45.096Z,-3.6
2018-03-02T11:13:47.508Z,-3.8
2018-03-02T11:14:49.928Z,-3.6
2018-03-02T11:15:52.342Z,-3.3
2018-03-02T11:16:54.767Z,-3.8
2018-03-02T11:17:57.192Z,-3.8
2018-03-02T11:18:59.895Z,-3.6
2018-03-02T11:20:02.336Z,-3.4
2018-03-02T11:21:04.757Z,-3.2
2018-03-02T11:22:07.173Z,-2.7
2018-03-02T11:23:09.873Z,-2.4
2018-03-02T11:24:12.292Z,-2.5
2018-03-02T11:25:14.717Z,-2.8
2018-03-02T11:26:17.136Z,-3.1
2018-03-02T11:27:19.558Z,-3.1
2018-03-02T11:28:21.971Z,-2.9
2018-03-02T11:29:24.390Z,-3
2018-03-02T11:30:26.807Z,-2.9
2018-03-02T11:31:29.530Z,-3
2018-03-02T11:32:31.942Z,-3
2018-03-02T11:33:34.367Z,-3.4
2018-03-02T11:34:36.785Z,-3.3
2018-03-02T11:35:39.252Z,-2.9
2018-03-02T11:36:41.984Z,-3.2
2018-03-02T11:37:44.397Z,-2.6
2018-03-02T11:38:46.812Z,-2.5
2018-03-02T11:39:49.531Z,-2.3
2018-03-02T11:40:51.946Z,-2.8
2018-03-02T11:41:54.358Z,-2.5
2018-03-02T11:42:56.771Z,-2.3
2018-03-02T11:43:59.195Z,-2.3
2018-03-02T11:45:01.621Z,-2.5
2018-03-02T11:46:04.050Z,-2.2
2018-03-02T11:47:06.542Z,-2.3
2018-03-02T11:48:08.889Z,-2.3
2018-03-02T11:49:11.315Z,-1.2
2018-03-02T11:50:13.733Z,-1.2
2018-03-02T11:51:16.826Z,-1.5
2018-03-02T11:52:19.443Z,-1.5
2018-03-02T11:53:22.197Z,-2
2018-03-02T11:54:24.657Z,-2.2
2018-03-02T11:55:27.081Z,-2.8
2018-03-02T11:56:29.495Z,-2.7
2018-03-02T11:57:31.912Z,-2.5
2018-03-02T11:58:34.338Z,-2.3
2018-03-02T11:59:36.751Z,-1.9
2018-03-02T12:00:39.172Z,-1.9
2018-03-02T12:01:41.880Z,-1.7
2018-03-02T12:02:44.302Z,-1.6
2018-03-02T12:03:47.019Z,-2
2018-03-02T12:04:49.440Z,-1.6
2018-03-02T12:05:51.863Z,-1.8
2018-03-02T12:06:54.281Z,-2
2018-03-02T12:07:56.700Z,-2
2018-03-02T12:08:59.121Z,-1.4
2018-03-02T12:10:01.542Z,-1
2018-03-02T12:11:03.972Z,-1.5
2018-03-02T12:12:06.393Z,-2
2018-03-02T12:13:08.799Z,-1.6
2018-03-02T12:14:11.236Z,-2.1
2018-03-02T12:15:13.659Z,-1.7
2018-03-02T12:16:16.089Z,-1.6
2018-03-02T12:17:18.504Z,-1.8
2018-03-02T12:18:20.918Z,-2.2
2018-03-02T12:19:23.626Z,-1.2
2018-03-02T12:20:26.060Z,-1.9
2018-03-02T12:21:28.482Z,-1.5
2018-03-02T12:22:30.900Z,-1.2
2018-03-02T12:23:33.661Z,-1.4
2018-03-02T12:24:36.084Z,-1.9
2018-03-02T12:25:38.795Z,-2.3
2018-03-02T12:26:41.210Z,-2.4
2018-03-02T12:27:43.944Z,-1.8
2018-03-02T12:28:46.361Z,-2.3
2018-03-02T12:29:48.786Z,-2.8
2018-03-02T12:30:51.211Z,-2.8
2018-03-02T12:31:53.627Z,-3
2018-03-02T12:32:56.052Z,-2.8
2018-03-02T12:33:58.777Z,-2.8
2018-03-02T12:35:01.819Z,-3.3
2018-03-02T12:36:04.228Z,-3.3
2018-03-02T12:37:06.927Z,-2.5
2018-03-02T12:38:09.353Z,-2.5
2018-03-02T12:39:12.082Z,-2.7
2018-03-02T12:40:14.510Z,-2.6
2018-03-02T12:41:16.939Z,-2.7
2018-03-02T12:42:19.646Z,-1.6
2018-03-02T12:43:22.072Z,-1.1
2018-03-02T12:44:24.515Z,-1.5
2018-03-02T12:45:26.901Z,-1.5
2018-03-02T12:46:29.337Z,-1.5
2018-03-02T12:47:31.753Z,-1.6
2018-03-02T12:48:34.456Z,-1.6
2018-03-02T12:49:36.896Z,-2
2018-03-02T12:50:39.295Z,-2.2
2018-03-02T12:51:41.723Z,-2.5
2018-03-02T12:52:44.149Z,-2.3
2018-03-02T12:53:46.559Z,-3
2018-03-02T12:54:49.558Z,-2
2018-03-02T12:55:51.973Z,-1
2018-03-02T12:56:54.705Z,-1.8
2018-03-02T12:57:57.130Z,-2.2
2018-03-02T12:58:59.552Z,-1.8
2018-03-02T13:00:01.985Z,-1.6
2018-03-02T13:01:04.731Z,-1.6
2018-03-02T13:02:07.142Z,-2.2
2018-03-02T13:03:09.564Z,-2.8
2018-03-02T13:04:12.263Z,-2.4
2018-03-02T13:05:14.979Z,-2
2018-03-02T13:06:17.406Z,-1.9
2018-03-02T13:07:20.410Z,-1.9
2018-03-02T13:08:22.819Z,-2.8
2018-03-02T13:09:25.251Z,-2.2
2018-03-02T13:10:27.678Z,-1.6
2018-03-02T13:11:30.105Z,-2
2018-03-02T13:12:32.521Z,-2.3
2018-03-02T13:13:35.228Z,-2.6
2018-03-02T13:14:37.937Z,-2.8
2018-03-02T13:15:40.365Z,-2.5
2018-03-02T13:16:42.778Z,-2.3
2018-03-02T13:17:45.207Z,-2.7
2018-03-02T13:18:47.644Z,-3.2
2018-03-02T13:19:50.054Z,-2.8
2018-03-02T13:20:52.473Z,-3.1
2018-03-02T13:21:54.896Z,-2.8
2018-03-02T13:22:57.315Z,-3.1
2018-03-02T13:23:59.784Z,-2.9
2018-03-02T13:25:02.154Z,-3.2
2018-03-02T13:26:04.585Z,-3
2018-03-02T13:27:07.005Z,-2.4
2018-03-02T13:28:09.420Z,-2.4
2018-03-02T13:29:11.846Z,-2.6
2018-03-02T13:30:14.280Z,-2.6
2018-03-02T13:31:16.689Z,-2.5
2018-03-02T13:32:19.108Z,-2.6
2018-03-02T13:33:21.810Z,-2.6
2018-03-02T13:34:24.539Z,-3.1
2018-03-02T13:35:26.961Z,-2.8
2018-03-02T13:36:29.378Z,-3.2
2018-03-02T13:37:31.799Z,-3
2018-03-02T13:38:34.215Z,-2.9
2018-03-02T13:39:36.638Z,-3
2018-03-02T13:40:39.059Z,-3.1
2018-03-02T13:41:41.475Z,-3
2018-03-02T13:42:43.895Z,-2.7